sensor_id;sensor_type;location;lat;lon;timestamp;P1;durP1;ratioP1;P2;durP2;ratioP2
56171;SDS011;42052;41.634;-0.946;2023-06-14T00:01:52;4.85;;;4.13;;
56171;SDS011;42052;41.634;-0.946;2023-06-14T00:04:38;4.10;;;3.67;;
56171;SDS011;42052;41.634;-0.946;2023-06-14T00:07:36;4.07;;;3.63;;
56171;SDS011;42052;41.634;-0.946;2023-06-14T00:10:27;4.60;;;3.45;;
56171;SDS011;42052;41.634;-0.946;2023-06-14T00:13:16;4.72;;;3.63;;
56171;SDS011;42052;41.634;-0.946;2023-06-14T00:16:02;4.63;;;3.30;;
56171;SDS011;42052;41.634;-0.946;2023-06-14T00:18:49;4.18;;;3.15;;
56171;SDS011;42052;41.634;-0.946;2023-06-14T00:21:38;4.40;;;3.30;;
56171;SDS011;42052;41.634;-0.946;2023-06-14T00:24:24;4.35;;;3.10;;
56171;SDS011;42052;41.634;-0.946;2023-06-14T00:27:10;4.38;;;3.10;;
56171;SDS011;42052;41.634;-0.946;2023-06-14T00:29:56;4.20;;;3.33;;
56171;SDS011;42052;41.634;-0.946;2023-06-14T00:32:44;4.75;;;2.70;;
56171;SDS011;42052;41.634;-0.946;2023-06-14T00:35:30;3.38;;;2.80;;
56171;SDS011;42052;41.634;-0.946;2023-06-14T00:38:17;2.90;;;2.50;;
56171;SDS011;42052;41.634;-0.946;2023-06-14T00:41:03;4.28;;;2.83;;
56171;SDS011;42052;41.634;-0.946;2023-06-14T00:43:50;4.15;;;2.70;;
56171;SDS011;42052;41.634;-0.946;2023-06-14T00:46:37;2.60;;;2.40;;
56171;SDS011;42052;41.634;-0.946;2023-06-14T00:49:23;2.50;;;2.30;;
56171;SDS011;42052;41.634;-0.946;2023-06-14T00:52:09;2.88;;;2.40;;
56171;SDS011;42052;41.634;-0.946;2023-06-14T00:54:58;3.65;;;2.40;;
56171;SDS011;42052;41.634;-0.946;2023-06-14T00:57:44;3.90;;;2.42;;
56171;SDS011;42052;41.634;-0.946;2023-06-14T01:00:30;2.67;;;2.20;;
56171;SDS011;42052;41.634;-0.946;2023-06-14T01:03:17;3.67;;;2.30;;
56171;SDS011;42052;41.634;-0.946;2023-06-14T01:12:19;4.20;;;2.00;;
56171;SDS011;42052;41.634;-0.946;2023-06-14T01:15:13;3.20;;;2.00;;
56171;SDS011;42052;41.634;-0.946;2023-06-14T01:18:00;2.50;;;1.90;;
56171;SDS011;42052;41.634;-0.946;2023-06-14T01:20:49;2.25;;;1.70;;
56171;SDS011;42052;41.634;-0.946;2023-06-14T01:23:36;2.95;;;1.90;;
56171;SDS011;42052;41.634;-0.946;2023-06-14T01:26:22;4.25;;;1.90;;
56171;SDS011;42052;41.634;-0.946;2023-06-14T01:29:08;3.72;;;2.00;;
56171;SDS011;42052;41.634;-0.946;2023-06-14T01:31:56;2.85;;;2.00;;
56171;SDS011;42052;41.634;-0.946;2023-06-14T01:34:42;3.58;;;1.90;;
56171;SDS011;42052;41.634;-0.946;2023-06-14T01:37:28;1.88;;;1.70;;
56171;SDS011;42052;41.634;-0.946;2023-06-14T01:40:15;2.90;;;1.83;;
56171;SDS011;42052;41.634;-0.946;2023-06-14T01:43:04;3.80;;;1.77;;
56171;SDS011;42052;41.634;-0.946;2023-06-14T01:45:52;2.38;;;1.90;;
56171;SDS011;42052;41.634;-0.946;2023-06-14T01:48:40;2.10;;;1.85;;
56171;SDS011;42052;41.634;-0.946;2023-06-14T01:51:27;3.75;;;1.77;;
56171;SDS011;42052;41.634;-0.946;2023-06-14T01:54:13;2.55;;;1.60;;
56171;SDS011;42052;41.634;-0.946;2023-06-14T01:56:59;5.30;;;1.70;;
56171;SDS011;42052;41.634;-0.946;2023-06-14T01:59:45;2.58;;;1.70;;
56171;SDS011;42052;41.634;-0.946;2023-06-14T02:02:33;2.95;;;1.80;;
56171;SDS011;42052;41.634;-0.946;2023-06-14T02:05:20;2.60;;;1.80;;
56171;SDS011;42052;41.634;-0.946;2023-06-14T02:08:06;3.13;;;1.83;;
56171;SDS011;42052;41.634;-0.946;2023-06-14T02:10:53;2.42;;;1.80;;
56171;SDS011;42052;41.634;-0.946;2023-06-14T02:13:39;2.50;;;1.80;;
56171;SDS011;42052;41.634;-0.946;2023-06-14T02:16:25;5.05;;;1.98;;
56171;SDS011;42052;41.634;-0.946;2023-06-14T02:19:13;3.28;;;1.60;;
56171;SDS011;42052;41.634;-0.946;2023-06-14T02:21:59;2.80;;;1.67;;
56171;SDS011;42052;41.634;-0.946;2023-06-14T02:24:46;2.33;;;1.67;;
56171;SDS011;42052;41.634;-0.946;2023-06-14T02:27:32;2.13;;;1.50;;
56171;SDS011;42052;41.634;-0.946;2023-06-14T02:30:19;2.20;;;1.63;;
56171;SDS011;42052;41.634;-0.946;2023-06-14T02:33:06;2.40;;;1.52;;
56171;SDS011;42052;41.634;-0.946;2023-06-14T02:35:52;4.18;;;1.40;;
56171;SDS011;42052;41.634;-0.946;2023-06-14T02:38:38;1.80;;;1.50;;
56171;SDS011;42052;41.634;-0.946;2023-06-14T02:41:24;3.60;;;1.65;;
56171;SDS011;42052;41.634;-0.946;2023-06-14T02:44:12;2.85;;;1.52;;
56171;SDS011;42052;41.634;-0.946;2023-06-14T02:46:59;3.10;;;1.52;;
56171;SDS011;42052;41.634;-0.946;2023-06-14T02:49:46;1.85;;;1.50;;
56171;SDS011;42052;41.634;-0.946;2023-06-14T02:52:32;2.03;;;1.58;;
56171;SDS011;42052;41.634;-0.946;2023-06-14T02:55:19;2.85;;;1.60;;
56171;SDS011;42052;41.634;-0.946;2023-06-14T02:58:05;1.80;;;1.30;;
56171;SDS011;42052;41.634;-0.946;2023-06-14T03:00:52;3.53;;;1.70;;
56171;SDS011;42052;41.634;-0.946;2023-06-14T03:03:39;4.05;;;1.50;;
56171;SDS011;42052;41.634;-0.946;2023-06-14T03:06:25;2.50;;;1.70;;
56171;SDS011;42052;41.634;-0.946;2023-06-14T03:09:11;2.47;;;1.40;;
56171;SDS011;42052;41.634;-0.946;2023-06-14T03:11:57;1.95;;;1.52;;
56171;SDS011;42052;41.634;-0.946;2023-06-14T03:14:44;1.88;;;1.42;;
56171;SDS011;42052;41.634;-0.946;2023-06-14T03:17:32;3.20;;;1.55;;
56171;SDS011;42052;41.634;-0.946;2023-06-14T03:20:19;2.95;;;1.77;;
56171;SDS011;42052;41.634;-0.946;2023-06-14T03:23:05;2.22;;;1.50;;
56171;SDS011;42052;41.634;-0.946;2023-06-14T03:25:52;2.20;;;1.60;;
56171;SDS011;42052;41.634;-0.946;2023-06-14T03:28:38;4.18;;;1.60;;
56171;SDS011;42052;41.634;-0.946;2023-06-14T03:31:24;3.50;;;1.63;;
56171;SDS011;42052;41.634;-0.946;2023-06-14T03:34:11;5.25;;;1.50;;
56171;SDS011;42052;41.634;-0.946;2023-06-14T03:36:57;2.15;;;1.70;;
56171;SDS011;42052;41.634;-0.946;2023-06-14T03:39:43;3.85;;;1.60;;
56171;SDS011;42052;41.634;-0.946;2023-06-14T03:42:31;2.40;;;1.50;;
56171;SDS011;42052;41.634;-0.946;2023-06-14T03:45:18;2.85;;;1.52;;
56171;SDS011;42052;41.634;-0.946;2023-06-14T03:48:04;2.42;;;1.45;;
56171;SDS011;42052;41.634;-0.946;2023-06-14T03:50:52;2.13;;;1.40;;
56171;SDS011;42052;41.634;-0.946;2023-06-14T03:53:40;2.80;;;1.45;;
56171;SDS011;42052;41.634;-0.946;2023-06-14T03:56:26;2.58;;;1.58;;
56171;SDS011;42052;41.634;-0.946;2023-06-14T03:59:13;1.75;;;1.23;;
56171;SDS011;42052;41.634;-0.946;2023-06-14T04:01:59;2.25;;;1.42;;
56171;SDS011;42052;41.634;-0.946;2023-06-14T04:04:45;1.50;;;1.30;;
56171;SDS011;42052;41.634;-0.946;2023-06-14T04:07:31;2.28;;;1.40;;
56171;SDS011;42052;41.634;-0.946;2023-06-14T04:10:17;3.35;;;1.40;;
56171;SDS011;42052;41.634;-0.946;2023-06-14T04:13:05;3.75;;;1.40;;
56171;SDS011;42052;41.634;-0.946;2023-06-14T04:15:52;1.30;;;1.20;;
56171;SDS011;42052;41.634;-0.946;2023-06-14T04:18:38;1.98;;;1.27;;
56171;SDS011;42052;41.634;-0.946;2023-06-14T04:21:24;5.00;;;1.60;;
56171;SDS011;42052;41.634;-0.946;2023-06-14T04:24:13;17.98;;;3.25;;
56171;SDS011;42052;41.634;-0.946;2023-06-14T04:26:59;19.15;;;4.50;;
56171;SDS011;42052;41.634;-0.946;2023-06-14T04:29:46;20.23;;;4.38;;
56171;SDS011;42052;41.634;-0.946;2023-06-14T04:32:38;17.83;;;4.35;;
56171;SDS011;42052;41.634;-0.946;2023-06-14T04:35:24;15.80;;;3.78;;
56171;SDS011;42052;41.634;-0.946;2023-06-14T04:38:11;20.38;;;4.15;;
56171;SDS011;42052;41.634;-0.946;2023-06-14T04:40:57;19.50;;;4.38;;
56171;SDS011;42052;41.634;-0.946;2023-06-14T04:43:47;13.68;;;4.03;;
56171;SDS011;42052;41.634;-0.946;2023-06-14T04:46:33;16.40;;;3.92;;
56171;SDS011;42052;41.634;-0.946;2023-06-14T04:49:31;14.35;;;3.90;;
56171;SDS011;42052;41.634;-0.946;2023-06-14T04:52:19;16.67;;;4.13;;
56171;SDS011;42052;41.634;-0.946;2023-06-14T04:55:06;13.43;;;3.78;;
56171;SDS011;42052;41.634;-0.946;2023-06-14T04:57:52;17.77;;;4.00;;
56171;SDS011;42052;41.634;-0.946;2023-06-14T05:00:39;13.18;;;3.70;;
56171;SDS011;42052;41.634;-0.946;2023-06-14T05:03:25;12.90;;;3.92;;
56171;SDS011;42052;41.634;-0.946;2023-06-14T05:06:12;12.05;;;3.60;;
56171;SDS011;42052;41.634;-0.946;2023-06-14T05:08:58;11.32;;;3.72;;
56171;SDS011;42052;41.634;-0.946;2023-06-14T05:11:44;13.60;;;3.20;;
56171;SDS011;42052;41.634;-0.946;2023-06-14T05:14:30;13.88;;;3.80;;
56171;SDS011;42052;41.634;-0.946;2023-06-14T05:17:16;11.98;;;3.58;;
56171;SDS011;42052;41.634;-0.946;2023-06-14T05:20:03;11.50;;;3.42;;
56171;SDS011;42052;41.634;-0.946;2023-06-14T05:22:52;11.77;;;3.50;;
56171;SDS011;42052;41.634;-0.946;2023-06-14T05:25:39;9.50;;;3.10;;
56171;SDS011;42052;41.634;-0.946;2023-06-14T05:28:25;8.32;;;3.13;;
56171;SDS011;42052;41.634;-0.946;2023-06-14T05:31:11;10.38;;;3.00;;
56171;SDS011;42052;41.634;-0.946;2023-06-14T05:33:57;10.32;;;2.85;;
56171;SDS011;42052;41.634;-0.946;2023-06-14T05:36:44;9.90;;;3.35;;
56171;SDS011;42052;41.634;-0.946;2023-06-14T05:39:30;8.32;;;2.97;;
56171;SDS011;42052;41.634;-0.946;2023-06-14T05:42:16;8.20;;;3.13;;
56171;SDS011;42052;41.634;-0.946;2023-06-14T05:45:02;7.25;;;2.83;;
56171;SDS011;42052;41.634;-0.946;2023-06-14T05:47:48;9.60;;;3.15;;
56171;SDS011;42052;41.634;-0.946;2023-06-14T05:50:35;9.93;;;3.08;;
56171;SDS011;42052;41.634;-0.946;2023-06-14T05:53:22;8.00;;;3.13;;
56171;SDS011;42052;41.634;-0.946;2023-06-14T05:56:08;7.03;;;2.92;;
56171;SDS011;42052;41.634;-0.946;2023-06-14T05:58:54;7.82;;;2.80;;
56171;SDS011;42052;41.634;-0.946;2023-06-14T06:01:40;7.43;;;2.47;;
56171;SDS011;42052;41.634;-0.946;2023-06-14T06:04:27;5.85;;;2.45;;
56171;SDS011;42052;41.634;-0.946;2023-06-14T06:07:13;5.32;;;2.53;;
56171;SDS011;42052;41.634;-0.946;2023-06-14T06:10:00;6.93;;;2.85;;
56171;SDS011;42052;41.634;-0.946;2023-06-14T06:12:46;6.28;;;2.40;;
56171;SDS011;42052;41.634;-0.946;2023-06-14T06:15:33;7.47;;;2.40;;
56171;SDS011;42052;41.634;-0.946;2023-06-14T06:18:20;5.97;;;2.47;;
56171;SDS011;42052;41.634;-0.946;2023-06-14T06:21:07;5.82;;;2.28;;
56171;SDS011;42052;41.634;-0.946;2023-06-14T06:23:53;5.43;;;2.25;;
56171;SDS011;42052;41.634;-0.946;2023-06-14T06:26:40;5.35;;;2.40;;
56171;SDS011;42052;41.634;-0.946;2023-06-14T06:29:26;5.40;;;2.40;;
56171;SDS011;42052;41.634;-0.946;2023-06-14T06:32:12;5.18;;;2.30;;
56171;SDS011;42052;41.634;-0.946;2023-06-14T06:34:59;6.03;;;2.40;;
56171;SDS011;42052;41.634;-0.946;2023-06-14T06:37:45;6.25;;;2.25;;
56171;SDS011;42052;41.634;-0.946;2023-06-14T06:40:31;5.30;;;2.22;;
56171;SDS011;42052;41.634;-0.946;2023-06-14T06:43:17;4.07;;;2.03;;
